sensor_id;sensor_type;location;lat;lon;timestamp;temperature;humidity
418;DHT22;49;48.530;9.200;2022-10-16T00:01:04;21.80;81.00
418;DHT22;49;48.530;9.200;2022-10-16T00:03:32;21.70;81.10
418;DHT22;49;48.530;9.200;2022-10-16T00:05:59;21.70;80.90
418;DHT22;49;48.530;9.200;2022-10-16T00:08:27;21.60;81.70
418;DHT22;49;48.530;9.200;2022-10-16T00:10:59;21.50;81.60
418;DHT22;49;48.530;9.200;2022-10-16T00:13:26;21.60;81.20
418;DHT22;49;48.530;9.200;2022-10-16T00:15:55;21.70;80.40
418;DHT22;49;48.530;9.200;2022-10-16T00:18:24;21.60;80.60
418;DHT22;49;48.530;9.200;2022-10-16T00:20:51;21.60;80.70
418;DHT22;49;48.530;9.200;2022-10-16T00:23:18;21.60;80.80
418;DHT22;49;48.530;9.200;2022-10-16T00:25:45;21.50;81.10
418;DHT22;49;48.530;9.200;2022-10-16T00:28:12;21.60;80.70
418;DHT22;49;48.530;9.200;2022-10-16T00:30:39;21.50;80.70
418;DHT22;49;48.530;9.200;2022-10-16T00:33:06;21.50;81.20
418;DHT22;49;48.530;9.200;2022-10-16T00:35:34;21.40;81.50
418;DHT22;49;48.530;9.200;2022-10-16T00:38:01;21.40;81.90
418;DHT22;49;48.530;9.200;2022-10-16T00:40:28;21.40;81.70
418;DHT22;49;48.530;9.200;2022-10-16T00:42:55;21.20;81.90
418;DHT22;49;48.530;9.200;2022-10-16T00:45:21;21.20;82.40
418;DHT22;49;48.530;9.200;2022-10-16T00:47:49;21.20;82.10
418;DHT22;49;48.530;9.200;2022-10-16T00:50:22;21.20;82.40
418;DHT22;49;48.530;9.200;2022-10-16T00:52:53;21.30;81.90
418;DHT22;49;48.530;9.200;2022-10-16T00:55:20;21.20;82.30
418;DHT22;49;48.530;9.200;2022-10-16T00:57:48;21.40;81.80
418;DHT22;49;48.530;9.200;2022-10-16T01:00:18;21.30;82.30
418;DHT22;49;48.530;9.200;2022-10-16T01:02:52;21.20;82.60
418;DHT22;49;48.530;9.200;2022-10-16T01:05:19;21.40;81.80
418;DHT22;49;48.530;9.200;2022-10-16T01:07:56;21.50;81.40
418;DHT22;49;48.530;9.200;2022-10-16T01:10:30;21.60;80.50
418;DHT22;49;48.530;9.200;2022-10-16T01:13:02;21.50;80.70
418;DHT22;49;48.530;9.200;2022-10-16T01:15:34;21.50;80.70
418;DHT22;49;48.530;9.200;2022-10-16T01:18:08;21.40;80.60
418;DHT22;49;48.530;9.200;2022-10-16T01:20:42;21.20;81.00
418;DHT22;49;48.530;9.200;2022-10-16T01:23:20;20.80;83.10
418;DHT22;49;48.530;9.200;2022-10-16T01:25:59;20.80;83.70
418;DHT22;49;48.530;9.200;2022-10-16T01:28:38;20.90;84.30
418;DHT22;49;48.530;9.200;2022-10-16T01:31:06;21.10;83.30
418;DHT22;49;48.530;9.200;2022-10-16T01:33:37;21.10;83.10
418;DHT22;49;48.530;9.200;2022-10-16T01:36:10;21.20;81.60
418;DHT22;49;48.530;9.200;2022-10-16T01:38:39;21.00;83.30
418;DHT22;49;48.530;9.200;2022-10-16T01:41:10;21.10;82.40
418;DHT22;49;48.530;9.200;2022-10-16T01:43:42;20.90;82.90
418;DHT22;49;48.530;9.200;2022-10-16T01:46:10;20.90;82.90
418;DHT22;49;48.530;9.200;2022-10-16T01:48:40;20.80;83.30
418;DHT22;49;48.530;9.200;2022-10-16T01:51:10;20.80;83.60
418;DHT22;49;48.530;9.200;2022-10-16T01:53:38;20.70;84.40
418;DHT22;49;48.530;9.200;2022-10-16T01:56:09;20.70;83.80
418;DHT22;49;48.530;9.200;2022-10-16T01:58:42;21.00;83.10
418;DHT22;49;48.530;9.200;2022-10-16T02:01:11;21.20;82.50
418;DHT22;49;48.530;9.200;2022-10-16T02:03:41;21.30;82.10
418;DHT22;49;48.530;9.200;2022-10-16T02:06:09;21.40;81.60
418;DHT22;49;48.530;9.200;2022-10-16T02:08:36;21.40;81.30
418;DHT22;49;48.530;9.200;2022-10-16T02:11:04;21.40;81.10
418;DHT22;49;48.530;9.200;2022-10-16T02:13:35;21.40;80.70
418;DHT22;49;48.530;9.200;2022-10-16T02:16:06;21.40;81.50
418;DHT22;49;48.530;9.200;2022-10-16T02:18:33;21.30;81.50
418;DHT22;49;48.530;9.200;2022-10-16T02:21:04;21.40;80.90
418;DHT22;49;48.530;9.200;2022-10-16T02:23:37;21.40;80.90
418;DHT22;49;48.530;9.200;2022-10-16T02:26:09;21.30;81.30
418;DHT22;49;48.530;9.200;2022-10-16T02:28:41;21.30;82.00
418;DHT22;49;48.530;9.200;2022-10-16T02:31:11;21.20;81.90
418;DHT22;49;48.530;9.200;2022-10-16T02:33:41;21.10;82.60
418;DHT22;49;48.530;9.200;2022-10-16T02:36:10;21.00;82.60
418;DHT22;49;48.530;9.200;2022-10-16T02:38:37;21.20;82.10
418;DHT22;49;48.530;9.200;2022-10-16T02:41:05;21.20;81.90
418;DHT22;49;48.530;9.200;2022-10-16T02:43:33;21.00;83.20
418;DHT22;49;48.530;9.200;2022-10-16T02:46:00;20.90;83.50
418;DHT22;49;48.530;9.200;2022-10-16T02:48:28;21.00;83.40
418;DHT22;49;48.530;9.200;2022-10-16T02:54:17;21.10;83.70
418;DHT22;49;48.530;9.200;2022-10-16T02:56:44;20.90;84.40
418;DHT22;49;48.530;9.200;2022-10-16T02:59:10;21.10;82.50
418;DHT22;49;48.530;9.200;2022-10-16T03:01:37;21.10;82.80
418;DHT22;49;48.530;9.200;2022-10-16T03:04:05;20.90;84.00
418;DHT22;49;48.530;9.200;2022-10-16T03:06:32;20.70;85.30
418;DHT22;49;48.530;9.200;2022-10-16T03:08:59;20.70;84.70
418;DHT22;49;48.530;9.200;2022-10-16T03:11:26;21.00;83.80
418;DHT22;49;48.530;9.200;2022-10-16T03:13:53;21.00;83.50
418;DHT22;49;48.530;9.200;2022-10-16T03:16:20;21.00;83.10
418;DHT22;49;48.530;9.200;2022-10-16T03:18:48;21.00;82.60
418;DHT22;49;48.530;9.200;2022-10-16T03:21:17;21.10;82.30
418;DHT22;49;48.530;9.200;2022-10-16T03:23:44;21.00;82.60
418;DHT22;49;48.530;9.200;2022-10-16T03:26:10;21.10;82.60
418;DHT22;49;48.530;9.200;2022-10-16T03:28:37;21.10;81.90
418;DHT22;49;48.530;9.200;2022-10-16T03:31:04;21.20;82.50
418;DHT22;49;48.530;9.200;2022-10-16T03:33:31;20.60;85.30
418;DHT22;49;48.530;9.200;2022-10-16T03:35:58;20.30;87.80
418;DHT22;49;48.530;9.200;2022-10-16T03:38:27;20.40;87.50
418;DHT22;49;48.530;9.200;2022-10-16T03:40:53;20.40;86.30
418;DHT22;49;48.530;9.200;2022-10-16T03:43:20;20.50;86.40
418;DHT22;49;48.530;9.200;2022-10-16T03:45:47;20.70;86.60
418;DHT22;49;48.530;9.200;2022-10-16T03:48:14;20.80;85.10
418;DHT22;49;48.530;9.200;2022-10-16T03:50:41;20.90;85.00
418;DHT22;49;48.530;9.200;2022-10-16T03:53:08;21.10;83.70
418;DHT22;49;48.530;9.200;2022-10-16T03:55:36;21.20;83.30
418;DHT22;49;48.530;9.200;2022-10-16T03:58:03;21.10;83.00
418;DHT22;49;48.530;9.200;2022-10-16T04:00:30;21.10;83.50
418;DHT22;49;48.530;9.200;2022-10-16T04:02:57;20.80;83.90
418;DHT22;49;48.530;9.200;2022-10-16T04:05:24;21.10;83.70
418;DHT22;49;48.530;9.200;2022-10-16T04:07:51;21.20;83.00
418;DHT22;49;48.530;9.200;2022-10-16T04:10:17;20.90;83.90
418;DHT22;49;48.530;9.200;2022-10-16T04:12:46;20.60;85.70
418;DHT22;49;48.530;9.200;2022-10-16T04:15:12;20.40;86.30
418;DHT22;49;48.530;9.200;2022-10-16T04:17:39;20.60;86.40
418;DHT22;49;48.530;9.200;2022-10-16T04:20:07;20.70;86.60
418;DHT22;49;48.530;9.200;2022-10-16T04:22:34;20.60;86.40
418;DHT22;49;48.530;9.200;2022-10-16T04:25:01;20.70;86.60
418;DHT22;49;48.530;9.200;2022-10-16T04:27:27;20.70;86.30
418;DHT22;49;48.530;9.200;2022-10-16T04:29:58;20.70;85.70
418;DHT22;49;48.530;9.200;2022-10-16T04:32:25;20.20;88.40
418;DHT22;49;48.530;9.200;2022-10-16T04:34:52;20.20;88.40
418;DHT22;49;48.530;9.200;2022-10-16T04:37:19;20.40;87.40
418;DHT22;49;48.530;9.200;2022-10-16T04:39:45;20.50;87.80
418;DHT22;49;48.530;9.200;2022-10-16T04:42:12;20.70;87.30
418;DHT22;49;48.530;9.200;2022-10-16T04:44:39;20.80;85.80
418;DHT22;49;48.530;9.200;2022-10-16T04:47:08;20.80;86.60
418;DHT22;49;48.530;9.200;2022-10-16T04:49:35;20.70;86.00
418;DHT22;49;48.530;9.200;2022-10-16T04:52:01;20.90;84.80
418;DHT22;49;48.530;9.200;2022-10-16T04:54:28;20.60;86.40
418;DHT22;49;48.530;9.200;2022-10-16T04:56:55;20.80;85.90
418;DHT22;49;48.530;9.200;2022-10-16T04:59:23;20.70;86.40
418;DHT22;49;48.530;9.200;2022-10-16T05:01:50;20.70;86.70
418;DHT22;49;48.530;9.200;2022-10-16T05:04:18;20.40;87.30
418;DHT22;49;48.530;9.200;2022-10-16T05:06:45;20.50;87.40
418;DHT22;49;48.530;9.200;2022-10-16T05:09:12;20.70;86.30
418;DHT22;49;48.530;9.200;2022-10-16T05:11:38;20.80;85.60
418;DHT22;49;48.530;9.200;2022-10-16T05:14:05;20.80;86.00
418;DHT22;49;48.530;9.200;2022-10-16T05:16:32;20.70;86.50
418;DHT22;49;48.530;9.200;2022-10-16T05:18:59;20.70;86.00
418;DHT22;49;48.530;9.200;2022-10-16T05:21:27;20.80;84.30
418;DHT22;49;48.530;9.200;2022-10-16T05:23:54;20.90;85.60
418;DHT22;49;48.530;9.200;2022-10-16T05:26:21;20.70;84.50
418;DHT22;49;48.530;9.200;2022-10-16T05:28:49;20.80;84.00
418;DHT22;49;48.530;9.200;2022-10-16T05:31:16;20.80;85.40
418;DHT22;49;48.530;9.200;2022-10-16T05:33:45;21.00;84.90
418;DHT22;49;48.530;9.200;2022-10-16T05:36:12;21.00;84.40
418;DHT22;49;48.530;9.200;2022-10-16T05:38:40;20.90;83.50
418;DHT22;49;48.530;9.200;2022-10-16T05:41:07;20.70;84.40
418;DHT22;49;48.530;9.200;2022-10-16T05:43:34;20.50;84.80
418;DHT22;49;48.530;9.200;2022-10-16T05:46:02;20.50;86.40
418;DHT22;49;48.530;9.200;2022-10-16T05:48:30;20.60;86.50
418;DHT22;49;48.530;9.200;2022-10-16T05:50:58;20.60;85.00
418;DHT22;49;48.530;9.200;2022-10-16T05:53:25;20.40;86.30
418;DHT22;49;48.530;9.200;2022-10-16T05:55:55;20.60;86.50
418;DHT22;49;48.530;9.200;2022-10-16T05:58:22;20.70;85.80
418;DHT22;49;48.530;9.200;2022-10-16T06:00:53;20.70;86.10
418;DHT22;49;48.530;9.200;2022-10-16T06:03:21;20.70;85.20
418;DHT22;49;48.530;9.200;2022-10-16T06:05:47;20.70;85.50
418;DHT22;49;48.530;9.200;2022-10-16T06:08:14;20.80;85.10
418;DHT22;49;48.530;9.200;2022-10-16T06:10:41;20.90;84.10
418;DHT22;49;48.530;9.200;2022-10-16T06:13:10;20.90;84.70
418;DHT22;49;48.530;9.200;2022-10-16T06:15:37;21.00;84.50
418;DHT22;49;48.530;9.200;2022-10-16T06:18:04;21.20;84.00
418;DHT22;49;48.530;9.200;2022-10-16T06:20:31;21.30;82.70
418;DHT22;49;48.530;9.200;2022-10-16T06:22:58;21.30;82.80
418;DHT22;49;48.530;9.200;2022-10-16T06:25:25;21.30;82.50
418;DHT22;49;48.530;9.200;2022-10-16T06:27:52;21.40;82.10
418;DHT22;49;48.530;9.200;2022-10-16T06:30:20;21.10;83.20
418;DHT22;49;48.530;9.200;2022-10-16T06:32:47;21.20;83.00
418;DHT22;49;48.530;9.200;2022-10-16T06:35:14;21.00;83.30
418;DHT22;49;48.530;9.200;2022-10-16T06:37:41;20.90;83.70
418;DHT22;49;48.530;9.200;2022-10-16T06:40:08;21.00;83.90
418;DHT22;49;48.530;9.200;2022-10-16T06:42:35;21.20;83.70
418;DHT22;49;48.530;9.200;2022-10-16T06:45:02;21.30;82.80
418;DHT22;49;48.530;9.200;2022-10-16T06:47:30;21.60;82.30
418;DHT22;49;48.530;9.200;2022-10-16T06:49:57;21.40;83.40
418;DHT22;49;48.530;9.200;2022-10-16T06:52:24;21.30;83.50
418;DHT22;49;48.530;9.200;2022-10-16T06:54:51;21.50;83.20
418;DHT22;49;48.530;9.200;2022-10-16T06:57:18;21.60;82.70
418;DHT22;49;48.530;9.200;2022-10-16T06:59:44;21.20;84.00
418;DHT22;49;48.530;9.200;2022-10-16T07:02:11;21.00;85.40
418;DHT22;49;48.530;9.200;2022-10-16T07:04:39;21.30;85.00
418;DHT22;49;48.530;9.200;2022-10-16T07:07:07;21.40;84.00
418;DHT22;49;48.530;9.200;2022-10-16T07:09:37;21.70;82.90
418;DHT22;49;48.530;9.200;2022-10-16T07:12:04;21.80;81.40
418;DHT22;49;48.530;9.200;2022-10-16T07:14:31;21.90;81.60
418;DHT22;49;48.530;9.200;2022-10-16T07:16:58;22.10;80.20
418;DHT22;49;48.530;9.200;2022-10-16T07:19:25;21.70;82.30
418;DHT22;49;48.530;9.200;2022-10-16T07:21:53;20.90;86.90
418;DHT22;49;48.530;9.200;2022-10-16T07:24:20;20.70;89.20
418;DHT22;49;48.530;9.200;2022-10-16T07:26:46;20.40;90.70
418;DHT22;49;48.530;9.200;2022-10-16T07:29:14;20.40;90.80
418;DHT22;49;48.530;9.200;2022-10-16T07:31:42;20.80;89.90
418;DHT22;49;48.530;9.200;2022-10-16T07:34:09;21.20;87.70
418;DHT22;49;48.530;9.200;2022-10-16T07:36:36;20.70;89.70
418;DHT22;49;48.530;9.200;2022-10-16T07:39:05;20.50;90.50
418;DHT22;49;48.530;9.200;2022-10-16T07:41:31;20.50;90.70
418;DHT22;49;48.530;9.200;2022-10-16T07:44:02;20.90;89.70
418;DHT22;49;48.530;9.200;2022-10-16T07:46:29;21.40;87.30
418;DHT22;49;48.530;9.200;2022-10-16T07:48:57;21.60;87.40
418;DHT22;49;48.530;9.200;2022-10-16T07:51:25;21.80;86.60
418;DHT22;49;48.530;9.200;2022-10-16T07:53:52;22.00;85.70
418;DHT22;49;48.530;9.200;2022-10-16T07:56:21;22.10;85.80
418;DHT22;49;48.530;9.200;2022-10-16T07:58:48;22.10;85.50
418;DHT22;49;48.530;9.200;2022-10-16T08:01:17;22.20;85.30
418;DHT22;49;48.530;9.200;2022-10-16T08:03:45;22.00;86.90
418;DHT22;49;48.530;9.200;2022-10-16T08:06:12;22.40;85.50
418;DHT22;49;48.530;9.200;2022-10-16T08:08:39;22.80;83.50
418;DHT22;49;48.530;9.200;2022-10-16T08:11:06;23.10;81.90
418;DHT22;49;48.530;9.200;2022-10-16T08:13:35;23.20;80.90
418;DHT22;49;48.530;9.200;2022-10-16T08:16:02;23.20;79.70
418;DHT22;49;48.530;9.200;2022-10-16T08:18:33;23.30;80.60
418;DHT22;49;48.530;9.200;2022-10-16T08:21:00;23.50;79.10
418;DHT22;49;48.530;9.200;2022-10-16T08:23:28;23.30;77.50
418;DHT22;49;48.530;9.200;2022-10-16T08:25:55;23.10;81.00
418;DHT22;49;48.530;9.200;2022-10-16T08:28:23;23.30;79.80
418;DHT22;49;48.530;9.200;2022-10-16T08:30:51;23.70;78.50
418;DHT22;49;48.530;9.200;2022-10-16T08:33:18;23.90;78.20
418;DHT22;49;48.530;9.200;2022-10-16T08:35:50;24.30;76.60
418;DHT22;49;48.530;9.200;2022-10-16T08:38:19;24.50;75.90
418;DHT22;49;48.530;9.200;2022-10-16T08:40:46;24.70;76.50
418;DHT22;49;48.530;9.200;2022-10-16T08:43:35;25.00;75.70
418;DHT22;49;48.530;9.200;2022-10-16T08:46:28;25.30;71.70
418;DHT22;49;48.530;9.200;2022-10-16T08:48:59;25.30;72.00
418;DHT22;49;48.530;9.200;2022-10-16T08:51:30;25.40;70.30
418;DHT22;49;48.530;9.200;2022-10-16T08:53:58;25.40;68.90
418;DHT22;49;48.530;9.200;2022-10-16T08:56:26;25.30;69.30
418;DHT22;49;48.530;9.200;2022-10-16T08:58:53;25.30;69.90
418;DHT22;49;48.530;9.200;2022-10-16T09:01:22;25.30;70.10
418;DHT22;49;48.530;9.200;2022-10-16T09:04:11;25.40;70.50
418;DHT22;49;48.530;9.200;2022-10-16T09:06:50;25.30;69.00
418;DHT22;49;48.530;9.200;2022-10-16T09:09:32;24.80;70.30
418;DHT22;49;48.530;9.200;2022-10-16T09:12:07;25.00;69.00
418;DHT22;49;48.530;9.200;2022-10-16T09:14:47;25.00;69.40
418;DHT22;49;48.530;9.200;2022-10-16T09:20:18;25.50;68.80
418;DHT22;49;48.530;9.200;2022-10-16T09:22:45;25.80;67.40
418;DHT22;49;48.530;9.200;2022-10-16T09:25:15;26.00;65.70
418;DHT22;49;48.530;9.200;2022-10-16T09:27:45;26.00;64.50
418;DHT22;49;48.530;9.200;2022-10-16T09:30:15;25.80;63.90
418;DHT22;49;48.530;9.200;2022-10-16T09:32:43;24.40;70.40
418;DHT22;49;48.530;9.200;2022-10-16T09:35:14;24.50;69.60
418;DHT22;49;48.530;9.200;2022-10-16T09:37:43;24.50;69.80
418;DHT22;49;48.530;9.200;2022-10-16T09:40:25;24.50;70.10
418;DHT22;49;48.530;9.200;2022-10-16T09:42:57;23.90;72.30
418;DHT22;49;48.530;9.200;2022-10-16T09:45:27;24.40;72.90
418;DHT22;49;48.530;9.200;2022-10-16T09:47:54;25.20;68.80
418;DHT22;49;48.530;9.200;2022-10-16T09:50:24;25.20;68.70
418;DHT22;49;48.530;9.200;2022-10-16T09:53:03;25.40;69.10
418;DHT22;49;48.530;9.200;2022-10-16T09:55:31;25.80;66.10
418;DHT22;49;48.530;9.200;2022-10-16T09:57:58;26.10;64.00
418;DHT22;49;48.530;9.200;2022-10-16T10:00:25;26.20;62.60
418;DHT22;49;48.530;9.200;2022-10-16T10:02:53;26.20;61.80
418;DHT22;49;48.530;9.200;2022-10-16T10:05:24;25.90;63.90
418;DHT22;49;48.530;9.200;2022-10-16T10:07:56;25.90;63.90
418;DHT22;49;48.530;9.200;2022-10-16T10:10:26;26.00;63.70
418;DHT22;49;48.530;9.200;2022-10-16T10:12:54;25.60;63.70
418;DHT22;49;48.530;9.200;2022-10-16T10:15:21;25.50;65.10
418;DHT22;49;48.530;9.200;2022-10-16T10:17:51;25.70;64.90
418;DHT22;49;48.530;9.200;2022-10-16T10:20:25;25.80;64.90
418;DHT22;49;48.530;9.200;2022-10-16T10:22:53;25.80;64.60
418;DHT22;49;48.530;9.200;2022-10-16T10:25:38;25.40;67.00
418;DHT22;49;48.530;9.200;2022-10-16T10:28:42;25.40;66.80
418;DHT22;49;48.530;9.200;2022-10-16T10:31:16;25.80;65.20
418;DHT22;49;48.530;9.200;2022-10-16T10:33:49;26.10;64.80
418;DHT22;49;48.530;9.200;2022-10-16T10:36:29;26.30;64.20
418;DHT22;49;48.530;9.200;2022-10-16T10:38:59;26.70;60.10
418;DHT22;49;48.530;9.200;2022-10-16T10:41:57;26.90;55.70
418;DHT22;49;48.530;9.200;2022-10-16T10:44:37;26.80;54.20
418;DHT22;49;48.530;9.200;2022-10-16T10:47:13;27.30;50.90
418;DHT22;49;48.530;9.200;2022-10-16T10:49:50;27.60;48.00
418;DHT22;49;48.530;9.200;2022-10-16T10:52:36;27.20;44.50
418;DHT22;49;48.530;9.200;2022-10-16T10:55:13;26.90;44.10
418;DHT22;49;48.530;9.200;2022-10-16T10:57:53;26.90;44.80
418;DHT22;49;48.530;9.200;2022-10-16T11:00:30;27.00;41.60
418;DHT22;49;48.530;9.200;2022-10-16T11:03:05;26.80;43.80
418;DHT22;49;48.530;9.200;2022-10-16T11:05:42;27.10;44.30
418;DHT22;49;48.530;9.200;2022-10-16T11:08:17;27.50;43.50
418;DHT22;49;48.530;9.200;2022-10-16T11:10:49;27.60;41.80
418;DHT22;49;48.530;9.200;2022-10-16T11:13:27;26.70;41.30
418;DHT22;49;48.530;9.200;2022-10-16T11:15:58;25.80;47.60
418;DHT22;49;48.530;9.200;2022-10-16T11:18:32;25.50;47.90
418;DHT22;49;48.530;9.200;2022-10-16T11:21:04;26.20;45.50
418;DHT22;49;48.530;9.200;2022-10-16T11:23:35;27.00;41.60
418;DHT22;49;48.530;9.200;2022-10-16T11:26:11;26.60;35.80
418;DHT22;49;48.530;9.200;2022-10-16T11:28:42;25.90;38.80
418;DHT22;49;48.530;9.200;2022-10-16T11:31:14;25.90;41.00
418;DHT22;49;48.530;9.200;2022-10-16T11:33:45;25.40;41.20
418;DHT22;49;48.530;9.200;2022-10-16T11:36:15;25.40;41.40
418;DHT22;49;48.530;9.200;2022-10-16T11:38:49;25.40;41.60
418;DHT22;49;48.530;9.200;2022-10-16T11:41:24;25.70;41.50
418;DHT22;49;48.530;9.200;2022-10-16T11:44:04;25.70;39.90
418;DHT22;49;48.530;9.200;2022-10-16T11:46:34;25.50;39.70
418;DHT22;49;48.530;9.200;2022-10-16T11:49:09;25.50;42.10
418;DHT22;49;48.530;9.200;2022-10-16T11:51:40;26.20;38.40
418;DHT22;49;48.530;9.200;2022-10-16T11:54:16;26.90;34.10
418;DHT22;49;48.530;9.200;2022-10-16T11:56:48;27.10;33.60
418;DHT22;49;48.530;9.200;2022-10-16T11:59:22;26.60;35.40
418;DHT22;49;48.530;9.200;2022-10-16T12:01:55;26.80;33.00
418;DHT22;49;48.530;9.200;2022-10-16T12:04:28;27.00;33.60
418;DHT22;49;48.530;9.200;2022-10-16T12:07:04;27.60;31.60
418;DHT22;49;48.530;9.200;2022-10-16T12:09:37;28.00;31.00
418;DHT22;49;48.530;9.200;2022-10-16T12:12:04;28.20;30.20
418;DHT22;49;48.530;9.200;2022-10-16T12:14:37;28.40;29.30
418;DHT22;49;48.530;9.200;2022-10-16T12:17:24;28.40;29.10
418;DHT22;49;48.530;9.200;2022-10-16T12:20:00;27.70;30.40
418;DHT22;49;48.530;9.200;2022-10-16T12:22:29;27.80;30.40
418;DHT22;49;48.530;9.200;2022-10-16T12:24:58;27.00;32.00
418;DHT22;49;48.530;9.200;2022-10-16T12:27:29;26.50;35.30
418;DHT22;49;48.530;9.200;2022-10-16T12:29:58;27.20;33.40
418;DHT22;49;48.530;9.200;2022-10-16T12:32:29;27.70;29.40
418;DHT22;49;48.530;9.200;2022-10-16T12:34:58;28.10;28.60
418;DHT22;49;48.530;9.200;2022-10-16T12:37:28;28.50;27.00
418;DHT22;49;48.530;9.200;2022-10-16T12:39:58;28.40;27.70
418;DHT22;49;48.530;9.200;2022-10-16T12:42:33;28.30;27.30
418;DHT22;49;48.530;9.200;2022-10-16T12:45:01;28.50;27.40
418;DHT22;49;48.530;9.200;2022-10-16T12:47:48;28.50;25.70
418;DHT22;49;48.530;9.200;2022-10-16T12:50:33;28.40;25.40
418;DHT22;49;48.530;9.200;2022-10-16T12:53:02;28.20;26.00
418;DHT22;49;48.530;9.200;2022-10-16T12:55:35;28.10;26.10
418;DHT22;49;48.530;9.200;2022-10-16T12:58:17;28.10;25.90
418;DHT22;49;48.530;9.200;2022-10-16T13:00:53;28.30;25.70
418;DHT22;49;48.530;9.200;2022-10-16T13:03:52;28.60;25.40
418;DHT22;49;48.530;9.200;2022-10-16T13:06:32;28.50;25.20
418;DHT22;49;48.530;9.200;2022-10-16T13:09:22;28.50;25.00
418;DHT22;49;48.530;9.200;2022-10-16T13:12:07;28.80;25.00
418;DHT22;49;48.530;9.200;2022-10-16T13:15:16;28.90;23.80
418;DHT22;49;48.530;9.200;2022-10-16T13:17:52;28.90;24.60
418;DHT22;49;48.530;9.200;2022-10-16T13:20:28;29.00;23.80
418;DHT22;49;48.530;9.200;2022-10-16T13:23:04;29.30;23.40
418;DHT22;49;48.530;9.200;2022-10-16T13:25:42;29.40;23.60
418;DHT22;49;48.530;9.200;2022-10-16T13:28:13;29.40;23.40
418;DHT22;49;48.530;9.200;2022-10-16T13:30:42;29.30;23.30
418;DHT22;49;48.530;9.200;2022-10-16T13:33:14;29.40;23.90
418;DHT22;49;48.530;9.200;2022-10-16T13:35:48;29.40;23.80
418;DHT22;49;48.530;9.200;2022-10-16T13:38:17;29.40;22.60
418;DHT22;49;48.530;9.200;2022-10-16T13:40:50;29.10;23.20
418;DHT22;49;48.530;9.200;2022-10-16T13:43:21;29.00;23.60
418;DHT22;49;48.530;9.200;2022-10-16T13:45:54;29.10;22.90
418;DHT22;49;48.530;9.200;2022-10-16T13:48:21;29.10;22.90
418;DHT22;49;48.530;9.200;2022-10-16T13:51:02;28.90;23.60
418;DHT22;49;48.530;9.200;2022-10-16T13:53:31;29.00;23.00
418;DHT22;49;48.530;9.200;2022-10-16T13:55:58;29.00;23.30
418;DHT22;49;48.530;9.200;2022-10-16T13:58:28;28.90;23.60
418;DHT22;49;48.530;9.200;2022-10-16T14:00:56;28.90;24.30
418;DHT22;49;48.530;9.200;2022-10-16T14:03:25;28.90;23.60
418;DHT22;49;48.530;9.200;2022-10-16T14:05:54;29.00;24.20
418;DHT22;49;48.530;9.200;2022-10-16T14:08:22;28.80;23.60
418;DHT22;49;48.530;9.200;2022-10-16T14:10:51;28.80;23.30
418;DHT22;49;48.530;9.200;2022-10-16T14:13:20;28.80;23.90
418;DHT22;49;48.530;9.200;2022-10-16T14:15:52;28.70;24.00
418;DHT22;49;48.530;9.200;2022-10-16T14:18:22;28.80;23.80
418;DHT22;49;48.530;9.200;2022-10-16T14:20:50;28.80;24.10
418;DHT22;49;48.530;9.200;2022-10-16T14:23:22;28.90;23.70
418;DHT22;49;48.530;9.200;2022-10-16T14:25:49;28.90;24.10
418;DHT22;49;48.530;9.200;2022-10-16T14:28:19;28.90;24.00
418;DHT22;49;48.530;9.200;2022-10-16T14:30:54;28.70;24.20
418;DHT22;49;48.530;9.200;2022-10-16T14:33:24;28.60;25.20
418;DHT22;49;48.530;9.200;2022-10-16T14:36:03;28.60;25.70
418;DHT22;49;48.530;9.200;2022-10-16T14:38:32;28.60;25.00
418;DHT22;49;48.530;9.200;2022-10-16T14:40:59;28.70;24.10
418;DHT22;49;48.530;9.200;2022-10-16T14:43:32;28.70;24.00
418;DHT22;49;48.530;9.200;2022-10-16T14:46:02;28.80;24.40
418;DHT22;49;48.530;9.200;2022-10-16T14:48:29;28.70;24.40
418;DHT22;49;48.530;9.200;2022-10-16T14:50:56;28.80;24.20
418;DHT22;49;48.530;9.200;2022-10-16T14:53:23;28.80;24.40
418;DHT22;49;48.530;9.200;2022-10-16T14:55:50;28.70;23.50
418;DHT22;49;48.530;9.200;2022-10-16T14:58:19;28.60;24.00
418;DHT22;49;48.530;9.200;2022-10-16T15:00:48;28.50;23.90
418;DHT22;49;48.530;9.200;2022-10-16T15:03:16;28.60;23.90
418;DHT22;49;48.530;9.200;2022-10-16T15:05:43;28.60;23.20
418;DHT22;49;48.530;9.200;2022-10-16T15:08:10;28.70;22.90
418;DHT22;49;48.530;9.200;2022-10-16T15:10:39;28.70;23.50
418;DHT22;49;48.530;9.200;2022-10-16T15:13:11;28.70;24.40
418;DHT22;49;48.530;9.200;2022-10-16T15:15:41;28.50;25.50
418;DHT22;49;48.530;9.200;2022-10-16T15:18:08;28.20;26.80
418;DHT22;49;48.530;9.200;2022-10-16T15:20:38;28.00;27.60
418;DHT22;49;48.530;9.200;2022-10-16T15:23:10;27.90;28.20
418;DHT22;49;48.530;9.200;2022-10-16T15:25:41;27.90;28.00
418;DHT22;49;48.530;9.200;2022-10-16T15:28:09;28.00;28.10
418;DHT22;49;48.530;9.200;2022-10-16T15:30:36;28.00;29.70
418;DHT22;49;48.530;9.200;2022-10-16T15:33:05;28.00;29.70
418;DHT22;49;48.530;9.200;2022-10-16T15:35:34;28.00;30.00
418;DHT22;49;48.530;9.200;2022-10-16T15:38:03;28.00;30.00
418;DHT22;49;48.530;9.200;2022-10-16T15:40:30;27.90;30.00
418;DHT22;49;48.530;9.200;2022-10-16T15:42:56;28.00;29.80
418;DHT22;49;48.530;9.200;2022-10-16T15:45:23;28.00;29.60
418;DHT22;49;48.530;9.200;2022-10-16T15:47:50;28.10;29.30
418;DHT22;49;48.530;9.200;2022-10-16T15:50:17;28.00;29.90
418;DHT22;49;48.530;9.200;2022-10-16T15:52:44;27.90;30.30
418;DHT22;49;48.530;9.200;2022-10-16T15:55:14;27.80;31.50
418;DHT22;49;48.530;9.200;2022-10-16T15:57:41;27.70;32.50
418;DHT22;49;48.530;9.200;2022-10-16T16:00:10;27.60;33.70
418;DHT22;49;48.530;9.200;2022-10-16T16:02:38;27.50;34.80
418;DHT22;49;48.530;9.200;2022-10-16T16:05:06;27.40;36.30
418;DHT22;49;48.530;9.200;2022-10-16T16:07:34;27.40;36.00
418;DHT22;49;48.530;9.200;2022-10-16T16:10:02;27.20;36.80
418;DHT22;49;48.530;9.200;2022-10-16T16:12:31;27.20;37.60
418;DHT22;49;48.530;9.200;2022-10-16T16:14:58;27.00;37.30
418;DHT22;49;48.530;9.200;2022-10-16T16:17:24;27.00;37.50
418;DHT22;49;48.530;9.200;2022-10-16T16:19:51;26.90;37.60
418;DHT22;49;48.530;9.200;2022-10-16T16:22:18;26.70;38.30
418;DHT22;49;48.530;9.200;2022-10-16T16:24:45;26.60;38.80
418;DHT22;49;48.530;9.200;2022-10-16T16:27:12;26.60;39.30
418;DHT22;49;48.530;9.200;2022-10-16T16:29:40;26.50;39.80
418;DHT22;49;48.530;9.200;2022-10-16T16:32:07;26.40;39.70
418;DHT22;49;48.530;9.200;2022-10-16T16:34:34;26.20;40.70
418;DHT22;49;48.530;9.200;2022-10-16T16:37:01;26.10;41.30
418;DHT22;49;48.530;9.200;2022-10-16T16:39:28;25.90;42.40
418;DHT22;49;48.530;9.200;2022-10-16T16:41:55;25.80;44.40
418;DHT22;49;48.530;9.200;2022-10-16T16:44:24;25.70;43.30
418;DHT22;49;48.530;9.200;2022-10-16T16:46:53;25.70;43.90
418;DHT22;49;48.530;9.200;2022-10-16T16:49:20;25.50;45.40
418;DHT22;49;48.530;9.200;2022-10-16T16:51:47;25.40;46.20
418;DHT22;49;48.530;9.200;2022-10-16T16:54:14;25.20;48.10
418;DHT22;49;48.530;9.200;2022-10-16T16:56:41;25.20;48.50
418;DHT22;49;48.530;9.200;2022-10-16T16:59:14;25.10;46.90
418;DHT22;49;48.530;9.200;2022-10-16T17:01:41;25.00;47.70
418;DHT22;49;48.530;9.200;2022-10-16T17:04:09;24.90;46.90
418;DHT22;49;48.530;9.200;2022-10-16T17:06:37;24.80;47.50
418;DHT22;49;48.530;9.200;2022-10-16T17:09:05;24.60;46.70
418;DHT22;49;48.530;9.200;2022-10-16T17:11:33;24.60;45.60
418;DHT22;49;48.530;9.200;2022-10-16T17:14:01;24.60;46.00
418;DHT22;49;48.530;9.200;2022-10-16T17:16:30;24.60;46.40